Terminal Aerodrome Forecast
Issued by NWS

Home | Current Version | Previous Version | Text Only | Print | Product List | Glossary On
Versions: 1 2 3 4 5 6 7 8 9 10 11 12 13 14 15
784
FTUS42 KTBW 230528
TAFLAL
TAF
KLAL 230528Z 2306/2406 VRB03KT P6SM SCT020
     FM230800 VRB03KT 5SM BR SCT005 SCT020
     FM231400 06012G17KT P6SM VCSH SCT020 BKN050
     FM231900 07015G21KT P6SM VCSH SCT030 OVC050
     FM240200 07010KT P6SM SCT020
      AMD NOT SKED TIL 231100=

USA.gov is the U.S. government's official web portal to all federal, state and local government web resources and services.